FlightSource - Aviation Photo Database

World Wide Airport Lookup


Search by ICAO
Or
Search by City

FlightSource.ca - Aviation Photo Database - Spichenkovo Airport Information
Airport Identification
Name: Spichenkovo Airport
ICAO: UNWW
IATA: NOZ
Airport Location
City: Novokuznetsk
Region: KEM
Country: Russia
Continent: Europe
Latitude: 53.8114
Longitude: 86.8772
Airport Information
Type: Medium Airport
Elevation: 1024 Feet ASL
Flight Status: UNWW
More Info: UNWW
Airport Weather    
Metar: UNWW 190730Z VRB02MPS 9999 SCT026 SCT040 BKN200 26/16 Q1004 NOSIG RMK QFE726/0968 1909//70
TAF:


Advertisement